Time;durP1;ratioP1;P1;durP2;ratioP2;P2;SDS_P1;SDS_P2;PMS_P1;PMS_P2;Temp;Humidity;BMP_temperature;BMP_pressure;BME280_temperature;BME280_humidity;BME280_pressure;Samples;Min_cycle;Max_cycle;Signal;HPM_P1;HPM_P2
2022/08/09 00:01:18;;;;;;;8.77;6.43;;;;;;;16.09;99.78;102523.06;5214271;28;20022;-68
2022/08/09 00:03:49;;;;;;;6.88;5.78;;;;;;;16.07;99.91;102519.63;5205821;28;20306;-68
2022/08/09 00:06:21;;;;;;;8.25;5.53;;;;;;;16.01;99.95;102523.63;5237220;28;20060;-69
2022/08/09 00:08:53;;;;;;;7.95;5.88;;;;;;;16.00;100.00;102521.03;5229823;28;20041;-68
2022/08/09 00:11:24;;;;;;;7.25;5.70;;;;;;;15.94;100.00;102521.47;5209147;28;20049;-69
2022/08/09 00:13:56;;;;;;;6.30;5.00;;;;;;;15.98;100.00;102515.75;5210216;28;20026;-68
2022/08/09 00:16:27;;;;;;;8.93;6.82;;;;;;;15.95;100.00;102510.56;5224042;28;20403;-69
2022/08/09 00:18:59;;;;;;;6.10;5.47;;;;;;;15.86;100.00;102514.81;5205942;28;20030;-69
2022/08/09 00:21:30;;;;;;;6.45;5.60;;;;;;;15.91;100.00;102510.94;5230006;28;20028;-69
2022/08/09 00:24:02;;;;;;;8.52;5.63;;;;;;;15.81;100.00;102514.28;5244213;28;20810;-68
2022/08/09 00:26:33;;;;;;;10.50;5.75;;;;;;;15.82;100.00;102510.63;5210597;28;20014;-68
2022/08/09 00:29:05;;;;;;;7.38;5.57;;;;;;;15.80;100.00;102514.38;5214419;28;20022;-68
2022/08/09 00:31:36;;;;;;;10.35;6.30;;;;;;;15.77;100.00;102512.78;5213831;28;20059;-68
2022/08/09 00:34:07;;;;;;;7.88;5.43;;;;;;;15.73;100.00;102511.28;5213310;28;20030;-68
2022/08/09 00:36:39;;;;;;;9.90;6.40;;;;;;;15.70;100.00;102514.16;5238440;28;20079;-69
2022/08/09 00:39:10;;;;;;;7.18;5.35;;;;;;;15.68;100.00;102513.41;5224319;28;20516;-68
2022/08/09 00:41:42;;;;;;;10.15;5.43;;;;;;;15.72;100.00;102514.03;5227806;28;20162;-68
2022/08/09 00:44:13;;;;;;;6.60;5.18;;;;;;;15.72;100.00;102509.50;5210117;28;20434;-68
2022/08/09 00:46:44;;;;;;;7.57;5.70;;;;;;;15.63;100.00;102508.38;5210625;28;20376;-69
2022/08/09 00:49:16;;;;;;;8.02;5.50;;;;;;;15.72;100.00;102506.81;5221704;28;20469;-69
2022/08/09 00:51:48;;;;;;;7.32;5.80;;;;;;;15.60;100.00;102505.03;5233300;28;20023;-69
2022/08/09 00:54:19;;;;;;;9.80;6.05;;;;;;;15.60;100.00;102513.09;5214838;28;20078;-69
2022/08/09 00:56:50;;;;;;;7.35;5.32;;;;;;;15.56;100.00;102514.28;5213343;28;20026;-68
2022/08/09 00:59:22;;;;;;;9.07;5.43;;;;;;;15.54;100.00;102513.53;5220013;28;20088;-68
2022/08/09 01:01:54;;;;;;;8.00;5.47;;;;;;;15.56;100.00;102514.28;5209246;28;20034;-69
2022/08/09 01:04:49;;;;;;;8.13;5.60;;;;;;;15.58;100.00;102510.50;5212789;28;20033;-69
2022/08/09 01:07:57;;;;;;;7.20;5.78;;;;;;;15.54;100.00;102513.53;5210373;28;20041;-69
2022/08/09 01:10:57;;;;;;;6.13;5.05;;;;;;;15.47;100.00;102519.38;5208645;28;20029;-69
2022/08/09 01:13:50;;;;;;;6.97;5.40;;;;;;;15.49;100.00;102514.72;5212967;28;20040;-69
2022/08/09 01:16:25;;;;;;;7.95;5.75;;;;;;;15.45;100.00;102515.03;5216021;28;20107;-68
2022/08/09 01:19:01;;;;;;;11.10;5.70;;;;;;;15.54;100.00;102521.63;5211197;28;20549;-68
2022/08/09 01:21:48;;;;;;;6.55;5.85;;;;;;;15.44;100.00;102511.50;5202542;28;20759;-68
2022/08/09 01:24:41;;;;;;;8.57;6.03;;;;;;;15.46;100.00;102519.47;5202147;28;20314;-68
2022/08/09 01:27:16;;;;;;;6.93;5.43;;;;;;;15.37;100.00;102520.97;5214208;28;20639;-68
2022/08/09 01:29:53;;;;;;;7.35;5.63;;;;;;;15.35;100.00;102525.59;5218833;28;20030;-68
2022/08/09 01:32:42;;;;;;;6.07;5.28;;;;;;;15.32;100.00;102515.03;5237880;28;20037;-69
2022/08/09 01:35:28;;;;;;;6.68;5.28;;;;;;;15.37;100.00;102503.97;5207651;28;20026;-69
2022/08/09 01:38:05;;;;;;;8.27;5.45;;;;;;;15.34;100.00;102512.25;5203394;28;20074;-68
2022/08/09 01:40:41;;;;;;;6.85;5.20;;;;;;;15.24;100.00;102506.66;5215484;28;20087;-69
2022/08/09 01:43:14;;;;;;;6.90;5.13;;;;;;;15.17;100.00;102514.28;5207391;28;20483;-69
2022/08/09 01:45:47;;;;;;;8.52;5.25;;;;;;;15.14;100.00;102505.56;5205967;28;20364;-68
2022/08/09 01:48:20;;;;;;;8.75;4.95;;;;;;;15.16;100.00;102509.03;5209715;28;20086;-68
2022/08/09 01:50:53;;;;;;;6.50;5.75;;;;;;;15.07;100.00;102503.31;5214629;28;20112;-68
2022/08/09 01:53:26;;;;;;;8.40;5.32;;;;;;;15.10;100.00;102516.53;5206558;28;20516;-69
2022/08/09 01:56:00;;;;;;;7.00;5.78;;;;;;;15.05;100.00;102516.00;5218563;28;20121;-69
2022/08/09 01:58:32;;;;;;;9.60;6.20;;;;;;;15.01;100.00;102516.31;5214182;28;20096;-68
2022/08/09 02:01:05;;;;;;;8.05;6.10;;;;;;;15.09;100.00;102512.13;5238564;28;20506;-69
2022/08/09 02:03:39;;;;;;;8.40;5.97;;;;;;;14.97;100.00;102506.75;5205411;28;20058;-68
2022/08/09 02:06:11;;;;;;;13.95;7.13;;;;;;;14.96;100.00;102522.00;5189220;28;20033;-68
2022/08/09 02:08:44;;;;;;;8.50;6.00;;;;;;;14.92;100.00;102523.19;5218383;28;20128;-68
2022/08/09 02:11:17;;;;;;;9.52;5.82;;;;;;;14.92;100.00;102523.19;5211131;28;20029;-68
2022/08/09 02:13:49;;;;;;;7.93;5.72;;;;;;;14.90;100.00;102519.75;5207914;28;20432;-68
2022/08/09 02:16:21;;;;;;;10.85;6.22;;;;;;;14.86;100.00;102529.84;5221763;28;20033;-68
2022/08/09 02:18:53;;;;;;;9.70;6.15;;;;;;;14.87;100.00;102517.25;5212238;28;20042;-68
2022/08/09 02:21:25;;;;;;;8.55;5.50;;;;;;;14.83;100.00;102523.81;5212387;28;20478;-69
2022/08/09 02:24:00;;;;;;;9.30;5.43;;;;;;;14.80;100.00;102519.47;5245120;28;20036;-68
2022/08/09 02:26:34;;;;;;;6.55;5.18;;;;;;;14.79;100.00;102516.94;5213090;28;20590;-68
2022/08/09 02:29:28;;;;;;;9.80;6.38;;;;;;;14.78;100.00;102515.19;5226470;28;20411;-68
2022/08/09 02:32:02;;;;;;;8.02;5.50;;;;;;;14.73;100.00;102511.94;5221034;28;20042;-68
2022/08/09 02:34:34;;;;;;;9.05;5.57;;;;;;;14.74;100.00;102508.31;5212516;28;20425;-68
2022/08/09 02:37:10;;;;;;;8.00;5.40;;;;;;;14.66;100.00;102512.38;5220322;28;20361;-68
2022/08/09 02:39:55;;;;;;;7.50;5.68;;;;;;;14.68;100.00;102512.25;5212409;28;20021;-68
2022/08/09 02:42:48;;;;;;;9.07;5.93;;;;;;;14.69;100.00;102509.47;5212925;28;20046;-68
2022/08/09 02:45:27;;;;;;;7.97;5.85;;;;;;;14.68;100.00;102506.88;5207923;28;20033;-69
2022/08/09 02:48:05;;;;;;;7.65;5.68;;;;;;;14.62;100.00;102504.63;5213448;28;20037;-68
2022/08/09 02:50:41;;;;;;;8.43;6.25;;;;;;;14.66;100.00;102509.69;5211607;28;20095;-69
2022/08/09 02:53:25;;;;;;;6.50;5.47;;;;;;;14.67;100.00;102511.41;5210497;28;20110;-69
2022/08/09 02:55:58;;;;;;;9.05;5.80;;;;;;;14.64;100.00;102510.75;5213048;28;20120;-68
2022/08/09 02:58:32;;;;;;;9.43;6.00;;;;;;;14.56;100.00;102507.69;5207645;28;20471;-69
2022/08/09 03:01:07;;;;;;;9.05;6.13;;;;;;;14.59;100.00;102505.66;5211617;28;20510;-69
2022/08/09 03:03:40;;;;;;;8.07;6.05;;;;;;;14.50;100.00;102503.59;5210483;28;20360;-69
2022/08/09 03:06:13;;;;;;;9.13;6.60;;;;;;;14.49;100.00;102507.22;5212631;28;20033;-69
2022/08/09 03:08:47;;;;;;;9.95;6.53;;;;;;;14.49;100.00;102510.75;5217471;28;20038;-69
2022/08/09 03:11:21;;;;;;;7.65;6.45;;;;;;;14.44;100.00;102506.66;5209529;28;20044;-68
2022/08/09 03:13:53;;;;;;;;;;;;;;;14.48;100.00;102500.16;5210918;28;20044;-69
2022/08/09 03:16:25;;;;;;;8.40;6.38;;;;;;;14.41;100.00;102501.50;5209742;28;19921;-69
2022/08/09 03:18:58;;;;;;;8.40;6.18;;;;;;;14.42;100.00;102508.59;5220465;28;20030;-68
2022/08/09 03:21:32;;;;;;;9.30;6.72;;;;;;;14.35;100.00;102504.59;5211416;28;21418;-68
2022/08/09 03:24:03;;;;;;;8.73;6.82;;;;;;;14.32;100.00;102500.28;5213259;28;20074;-69
2022/08/09 03:26:37;;;;;;;10.35;7.43;;;;;;;14.31;100.00;102512.00;5209349;28;20034;-68
2022/08/09 03:29:08;;;;;;;10.27;7.03;;;;;;;14.27;100.00;102503.28;5217131;28;20109;-69
2022/08/09 03:31:41;;;;;;;11.98;6.90;;;;;;;14.28;100.00;102513.03;5210858;28;20094;-68
2022/08/09 03:34:13;;;;;;;9.15;7.28;;;;;;;14.24;100.00;102508.00;5209306;28;20061;-68
2022/08/09 03:36:45;;;;;;;10.95;7.40;;;;;;;14.23;100.00;102512.50;5208591;28;20149;-68
2022/08/09 03:39:16;;;;;;;9.23;6.53;;;;;;;14.20;100.00;102510.00;5210514;28;20071;-68
2022/08/09 03:41:47;;;;;;;8.70;6.55;;;;;;;14.22;100.00;102516.13;5206286;28;20462;-69
2022/08/09 03:44:20;;;;;;;10.40;7.28;;;;;;;14.18;100.00;102514.63;5210575;28;20105;-68
2022/08/09 03:46:51;;;;;;;10.30;7.25;;;;;;;14.15;100.00;102506.75;5220894;28;20037;-69
2022/08/09 03:49:26;;;;;;;7.68;6.60;;;;;;;14.13;100.00;102514.03;5214437;28;20030;-68
2022/08/09 03:51:59;;;;;;;10.75;7.28;;;;;;;14.10;100.00;102515.13;5210900;28;20030;-69
2022/08/09 03:54:35;;;;;;;7.65;6.57;;;;;;;14.07;100.00;102511.75;5208475;28;20022;-69
2022/08/09 03:57:10;;;;;;;10.30;7.30;;;;;;;14.09;100.00;102510.72;5206625;28;20041;-69
2022/08/09 03:59:41;;;;;;;8.90;7.18;;;;;;;14.05;100.00;102514.53;5229782;27;20017;-69
2022/08/09 04:02:12;;;;;;;11.63;6.75;;;;;;;14.05;100.00;102519.06;5206424;28;20086;-68
2022/08/09 04:04:44;;;;;;;11.98;6.75;;;;;;;14.11;100.00;102516.84;5211263;28;20093;-69
2022/08/09 04:07:16;;;;;;;10.60;7.10;;;;;;;14.05;100.00;102516.38;5210455;28;20429;-68
2022/08/09 04:09:47;;;;;;;11.85;8.02;;;;;;;14.02;100.00;102509.38;5215661;28;20030;-68
2022/08/09 04:12:33;;;;;;;10.77;7.40;;;;;;;14.00;100.00;102510.44;5211514;28;20562;-68
2022/08/09 04:15:04;;;;;;;11.27;7.05;;;;;;;14.01;100.00;102507.66;5199057;28;20551;-68
2022/08/09 04:17:36;;;;;;;8.45;6.75;;;;;;;13.97;100.00;102502.59;5222507;28;20029;-69
2022/08/09 04:20:10;;;;;;;9.02;7.10;;;;;;;14.01;100.00;102506.81;5205826;28;20065;-68
2022/08/09 04:22:43;;;;;;;10.10;7.85;;;;;;;13.96;100.00;102506.22;5210726;28;20399;-68
2022/08/09 04:25:14;;;;;;;12.98;7.63;;;;;;;13.95;100.00;102512.56;5210711;28;20547;-68
2022/08/09 04:27:46;;;;;;;10.02;8.02;;;;;;;13.89;100.00;102505.78;5208074;28;20021;-68
2022/08/09 04:30:19;;;;;;;10.50;7.80;;;;;;;13.91;100.00;102514.59;5208040;28;20029;-68
2022/08/09 04:32:51;;;;;;;10.45;7.35;;;;;;;13.89;100.00;102522.72;5206032;28;20042;-68
2022/08/09 04:35:22;;;;;;;9.25;7.35;;;;;;;13.88;100.00;102521.03;5206188;28;20510;-68
2022/08/09 04:37:53;;;;;;;11.02;7.80;;;;;;;13.89;100.00;102528.09;5207425;28;20041;-68
2022/08/09 04:40:46;;;;;;;10.43;7.82;;;;;;;13.90;100.00;102527.16;5212709;28;20577;-69
2022/08/09 04:43:17;;;;;;;12.95;8.85;;;;;;;13.91;100.00;102526.16;5203168;28;20103;-68
2022/08/09 04:45:48;;;;;;;13.32;8.68;;;;;;;13.89;100.00;102533.47;5209799;28;20029;-69
2022/08/09 04:48:20;;;;;;;12.15;8.50;;;;;;;13.88;100.00;102534.44;5217980;28;20028;-69
2022/08/09 04:50:52;;;;;;;13.27;8.80;;;;;;;13.90;100.00;102535.19;5209127;28;20053;-68
2022/08/09 04:53:23;;;;;;;11.98;8.40;;;;;;;13.89;100.00;102537.97;5209154;28;20034;-68
2022/08/09 04:55:54;;;;;;;11.43;8.68;;;;;;;13.92;100.00;102530.59;5208064;28;20482;-68
2022/08/09 04:58:26;;;;;;;11.15;8.60;;;;;;;13.88;100.00;102537.13;5209023;28;20029;-68
2022/08/09 05:00:59;;;;;;;9.70;8.70;;;;;;;13.88;100.00;102537.13;5203423;28;20091;-68
2022/08/09 05:03:30;;;;;;;14.27;9.13;;;;;;;13.89;100.00;102540.66;5208784;28;20037;-68
2022/08/09 05:06:02;;;;;;;13.70;9.02;;;;;;;13.92;100.00;102543.13;5210533;28;20030;-68
2022/08/09 05:08:34;;;;;;;13.32;9.27;;;;;;;13.95;100.00;102547.47;5207540;28;20513;-68
2022/08/09 05:11:06;;;;;;;10.02;8.48;;;;;;;13.93;100.00;102543.03;5214808;28;20027;-69
2022/08/09 05:13:39;;;;;;;10.50;8.38;;;;;;;13.96;100.00;102551.84;5210169;28;20641;-68
2022/08/09 05:16:10;;;;;;;11.47;8.83;;;;;;;14.00;100.00;102550.69;5209564;28;20034;-68
2022/08/09 05:18:41;;;;;;;11.85;8.57;;;;;;;14.03;100.00;102558.56;5226855;28;20381;-68
2022/08/09 05:21:13;;;;;;;12.65;8.80;;;;;;;14.04;100.00;102554.94;5213795;28;20125;-68
2022/08/09 05:23:44;;;;;;;12.45;9.32;;;;;;;14.09;100.00;102558.16;5209238;28;20025;-69
2022/08/09 05:26:16;;;;;;;12.77;9.73;;;;;;;14.07;100.00;102552.03;5205711;28;20037;-68
2022/08/09 05:28:47;;;;;;;13.00;9.98;;;;;;;14.08;100.00;102551.06;5208031;28;20541;-69
2022/08/09 05:31:18;;;;;;;12.65;9.93;;;;;;;14.14;100.00;102555.19;5199773;28;20389;-68
2022/08/09 05:33:49;;;;;;;16.27;9.95;;;;;;;14.18;100.00;102554.88;5207344;28;20151;-68
2022/08/09 05:36:21;;;;;;;11.93;9.43;;;;;;;14.24;100.00;102550.94;5206419;28;20061;-68
2022/08/09 05:38:52;;;;;;;13.43;9.38;;;;;;;14.25;100.00;102545.47;5201887;28;20403;-68
2022/08/09 05:41:23;;;;;;;12.70;8.95;;;;;;;14.34;100.00;102553.88;5207215;28;20053;-68
2022/08/09 05:43:55;;;;;;;11.60;8.93;;;;;;;14.38;100.00;102558.09;5202454;28;20057;-68
2022/08/09 05:46:26;;;;;;;12.40;9.90;;;;;;;14.43;100.00;102564.88;5203016;28;20076;-68
2022/08/09 05:48:57;;;;;;;14.35;9.57;;;;;;;14.49;100.00;102560.94;5202622;28;20029;-68
2022/08/09 05:51:29;;;;;;;13.07;9.52;;;;;;;14.52;100.00;102566.13;5206550;28;20033;-68
2022/08/09 05:54:00;;;;;;;11.85;9.95;;;;;;;14.56;100.00;102562.28;5202827;28;20026;-68
2022/08/09 05:56:32;;;;;;;11.90;9.50;;;;;;;14.62;100.00;102567.25;5209685;28;20094;-68
2022/08/09 05:59:03;;;;;;;11.93;9.40;;;;;;;14.63;100.00;102563.63;5201807;28;20044;-69
2022/08/09 06:01:34;;;;;;;15.18;9.65;;;;;;;14.68;100.00;102577.59;5203066;28;20600;-68
2022/08/09 06:04:05;;;;;;;12.93;9.18;;;;;;;14.73;100.00;102579.13;5205304;28;20030;-68
2022/08/09 06:06:37;;;;;;;13.02;10.07;;;;;;;14.78;100.00;102574.31;5202967;28;20184;-68
2022/08/09 06:09:08;;;;;;;13.98;9.77;;;;;;;14.85;100.00;102570.25;5198739;28;20025;-68
2022/08/09 06:11:39;;;;;;;12.43;9.70;;;;;;;14.87;100.00;102571.00;5204120;28;20033;-68
2022/08/09 06:14:11;;;;;;;12.82;9.52;;;;;;;14.91;100.00;102580.59;5205455;28;20062;-68
2022/08/09 06:16:42;;;;;;;10.95;9.27;;;;;;;14.96;100.00;102580.25;5206729;28;20048;-68
2022/08/09 06:19:14;;;;;;;11.45;9.80;;;;;;;15.02;100.00;102583.41;5203836;28;20418;-69
2022/08/09 06:21:45;;;;;;;14.27;9.52;;;;;;;15.10;100.00;102589.13;5207101;28;20094;-69
2022/08/09 06:24:16;;;;;;;12.85;9.55;;;;;;;15.15;100.00;102590.63;5210311;28;20025;-69
2022/08/09 06:26:48;;;;;;;12.15;9.27;;;;;;;15.17;100.00;102586.91;5209166;28;20537;-68
2022/08/09 06:29:19;;;;;;;12.65;10.00;;;;;;;15.25;100.00;102589.91;5205457;28;20037;-68
2022/08/09 06:31:50;;;;;;;11.45;9.20;;;;;;;15.29;100.00;102585.19;5202336;28;20430;-68
2022/08/09 06:34:22;;;;;;;16.67;10.25;;;;;;;15.42;100.00;102588.75;5207741;28;20038;-68
2022/08/09 06:36:53;;;;;;;13.07;9.80;;;;;;;15.52;100.00;102590.81;5203998;28;20033;-69
2022/08/09 06:39:24;;;;;;;11.27;9.30;;;;;;;15.57;100.00;102588.63;5207489;28;20053;-68
2022/08/09 06:41:56;;;;;;;12.13;9.20;;;;;;;15.59;100.00;102598.34;5205762;28;20042;-69
2022/08/09 06:44:27;;;;;;;12.15;9.52;;;;;;;15.66;100.00;102599.63;5201253;28;20060;-68
2022/08/09 06:46:58;;;;;;;11.90;9.43;;;;;;;15.76;100.00;102599.00;5202723;28;20037;-67
2022/08/09 06:49:30;;;;;;;14.60;9.48;;;;;;;15.88;100.00;102587.38;5209115;28;20018;-67
2022/08/09 06:52:01;;;;;;;12.07;9.07;;;;;;;15.93;100.00;102587.03;5206914;28;20105;-67
2022/08/09 06:54:32;;;;;;;13.73;9.63;;;;;;;16.01;100.00;102587.34;5206563;28;20386;-67
2022/08/09 06:57:04;;;;;;;17.65;9.18;;;;;;;16.11;100.00;102599.19;5207641;28;20025;-68
2022/08/09 06:59:35;;;;;;;12.73;9.13;;;;;;;16.25;100.00;102601.75;5210966;28;20043;-67
2022/08/09 07:02:07;;;;;;;14.13;8.70;;;;;;;16.37;100.00;102593.75;5209247;28;20033;-67
2022/08/09 07:04:38;;;;;;;11.93;9.35;;;;;;;16.40;100.00;102596.22;5211980;28;20067;-68
2022/08/09 07:07:09;;;;;;;14.55;9.85;;;;;;;16.48;100.00;102607.28;5205352;28;20037;-67
2022/08/09 07:09:43;;;;;;;11.73;9.43;;;;;;;16.68;100.00;102608.50;5210619;28;20109;-67
2022/08/09 07:12:15;;;;;;;;;;;;;;;16.62;100.00;102609.81;5211678;28;20033;-68
2022/08/09 07:14:47;;;;;;;10.98;8.77;;;;;;;16.90;100.00;102613.19;5211418;28;19921;-67
2022/08/09 07:17:19;;;;;;;10.73;8.98;;;;;;;17.18;100.00;102613.78;5208741;28;20044;-67
2022/08/09 07:19:50;;;;;;;11.40;8.85;;;;;;;17.22;100.00;102607.16;5205743;28;20025;-67
2022/08/09 07:22:22;;;;;;;10.52;8.23;;;;;;;17.36;100.00;102601.56;5211543;28;20245;-67
2022/08/09 07:24:53;;;;;;;11.98;8.45;;;;;;;17.47;100.00;102605.28;5212850;28;20033;-67
2022/08/09 07:27:26;;;;;;;12.73;8.60;;;;;;;17.51;99.84;102602.22;5208373;28;20049;-67
2022/08/09 07:29:59;;;;;;;12.40;8.52;;;;;;;17.68;99.09;102603.63;5211188;28;20037;-67
2022/08/09 07:32:30;;;;;;;12.68;9.02;;;;;;;17.76;98.47;102606.56;5211144;28;20172;-68
2022/08/09 07:35:04;;;;;;;11.57;8.75;;;;;;;17.89;98.15;102611.00;5207560;28;20079;-67
2022/08/09 07:37:36;;;;;;;14.52;9.15;;;;;;;17.97;96.75;102616.69;5208034;28;20093;-68
2022/08/09 07:40:08;;;;;;;13.50;8.95;;;;;;;18.03;96.78;102614.31;5208894;28;20451;-68
2022/08/09 07:42:54;;;;;;;13.40;8.00;;;;;;;18.16;96.68;102614.22;5209184;28;20180;-67
2022/08/09 07:45:28;;;;;;;14.27;9.18;;;;;;;18.34;94.74;102608.28;5205412;28;20477;-67
2022/08/09 07:47:59;;;;;;;11.57;8.70;;;;;;;18.42;93.50;102613.91;5209049;28;20037;-67
2022/08/09 07:50:30;;;;;;;10.20;7.80;;;;;;;18.46;95.21;102603.72;5211825;28;20045;-68
2022/08/09 07:53:03;;;;;;;13.50;8.50;;;;;;;18.59;93.31;102607.97;5212055;28;20430;-68
2022/08/09 07:55:34;;;;;;;12.70;8.48;;;;;;;18.75;92.09;102612.13;5210981;28;20026;-68
2022/08/09 07:58:05;;;;;;;14.98;8.40;;;;;;;18.71;90.62;102613.38;5211499;28;20036;-68
2022/08/09 08:00:37;;;;;;;10.73;8.13;;;;;;;18.91;91.31;102609.03;5210249;28;20052;-68
2022/08/09 08:03:08;;;;;;;11.07;7.35;;;;;;;19.04;91.34;102615.09;5208301;28;20033;-68
2022/08/09 08:05:39;;;;;;;11.15;7.72;;;;;;;19.05;90.49;102618.69;5208949;28;20075;-67
2022/08/09 08:08:11;;;;;;;11.68;7.78;;;;;;;19.19;90.14;102621.06;5206035;28;20030;-68
2022/08/09 08:10:42;;;;;;;12.38;8.27;;;;;;;19.31;88.36;102621.88;5203204;28;20038;-68
2022/08/09 08:13:13;;;;;;;13.10;8.57;;;;;;;19.36;88.24;102617.78;5204616;28;20040;-68
2022/08/09 08:15:45;;;;;;;10.85;8.10;;;;;;;19.41;86.80;102614.69;5210534;28;20034;-68
2022/08/09 08:18:16;;;;;;;10.88;7.18;;;;;;;19.64;87.07;102619.97;5210183;28;20140;-68
2022/08/09 08:20:47;;;;;;;10.02;7.43;;;;;;;19.70;86.00;102622.97;5211866;28;20032;-68
2022/08/09 08:23:19;;;;;;;9.90;7.18;;;;;;;19.77;85.28;102618.78;5206510;28;20028;-68
2022/08/09 08:25:51;;;;;;;12.60;7.32;;;;;;;19.76;84.73;102618.91;5208526;28;20037;-68
2022/08/09 08:28:22;;;;;;;11.20;6.43;;;;;;;19.80;84.84;102616.81;5209201;28;20038;-68
2022/08/09 08:30:54;;;;;;;10.98;6.43;;;;;;;20.08;84.71;102616.06;5213518;28;20041;-68
2022/08/09 08:33:25;;;;;;;8.35;6.15;;;;;;;19.97;82.18;102613.47;5207665;28;20033;-68
2022/08/09 08:35:56;;;;;;;9.63;6.30;;;;;;;20.19;83.97;102617.81;5210644;28;20397;-68
2022/08/09 08:38:28;;;;;;;7.90;6.15;;;;;;;20.25;82.84;102621.81;5209018;28;20064;-67
2022/08/09 08:41:00;;;;;;;8.13;5.65;;;;;;;20.38;78.60;102622.44;5211374;28;20076;-67
2022/08/09 08:43:33;;;;;;;7.28;5.10;;;;;;;20.46;77.60;102622.63;5209966;28;20083;-68
2022/08/09 08:46:06;;;;;;;10.18;5.35;;;;;;;20.59;77.45;102618.78;5209265;28;20079;-66
2022/08/09 08:48:40;;;;;;;8.45;5.55;;;;;;;20.57;77.23;102621.63;5206735;28;20148;-67
2022/08/09 08:51:11;;;;;;;6.40;5.60;;;;;;;20.64;76.39;102620.09;5208710;28;20033;-67
2022/08/09 08:53:43;;;;;;;10.23;5.03;;;;;;;20.82;77.54;102617.56;5206906;28;20026;-67
2022/08/09 08:56:14;;;;;;;6.90;5.20;;;;;;;20.85;76.60;102616.44;5203916;28;20045;-66
2022/08/09 08:58:46;;;;;;;8.80;6.07;;;;;;;20.68;74.76;102623.41;5208780;28;20041;-67
2022/08/09 09:01:19;;;;;;;6.72;4.70;;;;;;;21.03;75.39;102620.13;5208097;28;20069;-67
2022/08/09 09:03:50;;;;;;;6.53;5.07;;;;;;;21.19;75.56;102621.41;5208808;28;20463;-66
2022/08/09 09:06:23;;;;;;;8.35;5.40;;;;;;;21.27;73.60;102629.72;5206885;28;20036;-67
2022/08/09 09:08:55;;;;;;;8.05;3.45;;;;;;;21.36;71.83;102623.38;5206780;28;20026;-67
2022/08/09 09:11:28;;;;;;;6.25;3.10;;;;;;;21.48;71.14;102637.72;5210339;28;20037;-66
2022/08/09 09:14:11;;;;;;;9.00;3.10;;;;;;;21.58;69.34;102646.69;5208295;28;20061;-66
2022/08/09 09:16:43;;;;;;;5.73;3.03;;;;;;;21.60;67.82;102633.81;5205590;28;20030;-67
2022/08/09 09:19:14;;;;;;;8.50;3.00;;;;;;;21.76;70.19;102632.34;5207416;28;20066;-66
2022/08/09 09:22:05;;;;;;;6.85;3.38;;;;;;;21.80;71.83;102639.19;5208434;28;20022;-66
2022/08/09 09:24:43;;;;;;;7.13;2.55;;;;;;;21.79;66.37;102640.22;5206856;28;20105;-67
2022/08/09 09:27:32;;;;;;;6.43;2.70;;;;;;;22.03;66.82;102647.84;5207465;28;20033;-66
2022/08/09 09:30:12;;;;;;;5.20;2.53;;;;;;;22.01;66.64;102645.28;5204582;28;20503;-67
2022/08/09 09:33:00;;;;;;;5.53;2.13;;;;;;;22.13;66.29;102635.09;5201452;28;20026;-66
2022/08/09 09:35:32;;;;;;;5.35;1.83;;;;;;;22.11;64.13;102632.50;5208223;28;20033;-66
2022/08/09 09:38:03;;;;;;;4.78;2.10;;;;;;;22.24;65.54;102625.88;5208243;28;20034;-67
2022/08/09 09:40:44;;;;;;;8.63;2.65;;;;;;;22.39;64.05;102632.53;5210984;28;20022;-67
2022/08/09 09:43:19;;;;;;;3.95;2.10;;;;;;;22.35;62.91;102635.72;5209727;28;20053;-67
2022/08/09 09:45:52;;;;;;;4.05;1.70;;;;;;;22.42;60.50;102625.97;5208075;28;20448;-68
2022/08/09 09:48:23;;;;;;;3.90;1.42;;;;;;;22.47;59.84;102629.91;5203246;28;20030;-67
2022/08/09 09:50:55;;;;;;;3.15;1.55;;;;;;;22.42;61.17;102626.81;5207881;28;20033;-67
2022/08/09 09:53:26;;;;;;;5.07;2.30;;;;;;;22.33;61.61;102626.88;5202249;28;20698;-67
2022/08/09 09:56:00;;;;;;;4.28;2.15;;;;;;;22.44;62.64;102632.09;5209482;28;20030;-66
2022/08/09 09:58:47;;;;;;;6.57;1.92;;;;;;;22.46;65.34;102621.94;5209453;28;20464;-67
2022/08/09 10:01:20;;;;;;;5.55;1.70;;;;;;;22.59;62.42;102625.13;5207996;28;20038;-67
2022/08/09 10:03:52;;;;;;;5.28;1.42;;;;;;;22.71;60.45;102632.06;5208834;28;20041;-68
2022/08/09 10:06:25;;;;;;;4.07;1.05;;;;;;;22.63;60.09;102626.53;5209773;28;20026;-67
2022/08/09 10:09:03;;;;;;;3.50;0.90;;;;;;;22.68;58.48;102628.78;5202750;28;20063;-67
2022/08/09 10:11:34;;;;;;;4.85;1.58;;;;;;;23.02;58.68;102633.53;5209163;28;20033;-67
2022/08/09 10:14:20;;;;;;;2.95;1.30;;;;;;;23.05;60.43;102633.25;5202380;28;20033;-67
2022/08/09 10:16:51;;;;;;;3.20;1.20;;;;;;;23.13;56.63;102636.06;5202431;28;20030;-66
2022/08/09 10:19:35;;;;;;;4.65;1.20;;;;;;;23.11;58.20;102624.47;5211451;28;20044;-67
2022/08/09 10:22:07;;;;;;;3.33;0.90;;;;;;;23.37;56.33;102629.09;5205783;28;20499;-66
2022/08/09 10:24:39;;;;;;;4.28;1.10;;;;;;;23.27;55.37;102627.31;5204580;28;20102;-66
2022/08/09 10:27:10;;;;;;;2.88;1.00;;;;;;;23.13;57.40;102619.72;5206211;28;20047;-66
2022/08/09 10:29:42;;;;;;;2.15;1.00;;;;;;;23.23;57.25;102631.38;5207575;28;20083;-67
2022/08/09 10:32:14;;;;;;;3.35;1.05;;;;;;;23.36;55.00;102630.97;5208108;28;20036;-66
2022/08/09 10:34:46;;;;;;;4.97;1.20;;;;;;;23.39;56.70;102625.19;5211719;28;20495;-65
2022/08/09 10:37:17;;;;;;;3.25;1.02;;;;;;;23.44;53.40;102617.41;5211736;28;20430;-67
2022/08/09 10:39:50;;;;;;;2.80;0.90;;;;;;;23.51;53.67;102616.75;5210949;28;20033;-66
2022/08/09 10:42:21;;;;;;;2.40;0.82;;;;;;;23.62;52.48;102611.06;5209610;28;20110;-67
2022/08/09 10:44:57;;;;;;;3.42;1.08;;;;;;;23.64;52.47;102607.19;5212691;28;20030;-67
2022/08/09 10:47:29;;;;;;;5.22;0.95;;;;;;;23.75;54.08;102611.47;5216792;28;20065;-66
2022/08/09 10:50:03;;;;;;;4.93;1.10;;;;;;;23.65;56.17;102605.28;5209482;28;20468;-67
2022/08/09 10:53:05;;;;;;;3.20;1.00;;;;;;;23.73;54.01;102597.16;5218483;28;20292;-67
2022/08/09 10:55:37;;;;;;;4.10;0.90;;;;;;;23.74;50.40;102598.00;5212449;28;20095;-66
2022/08/09 10:58:29;;;;;;;4.38;0.88;;;;;;;23.78;53.09;102602.09;5205994;28;20030;-67
2022/08/09 11:01:01;;;;;;;2.42;0.98;;;;;;;23.85;53.05;102595.03;5209869;28;20041;-66
2022/08/09 11:03:32;;;;;;;2.83;0.73;;;;;;;23.73;52.71;102585.41;5211409;28;20095;-67
2022/08/09 11:06:22;;;;;;;4.00;0.80;;;;;;;23.87;53.93;102601.19;5210632;28;20116;-66
2022/08/09 11:08:54;;;;;;;3.35;1.00;;;;;;;23.97;51.19;102591.03;5211863;28;20029;-66
2022/08/09 11:12:08;;;;;;;3.38;1.00;;;;;;;24.06;52.22;102600.91;5204175;28;20475;-66
2022/08/09 11:14:54;;;;;;;2.47;0.88;;;;;;;24.32;51.94;102597.28;5211370;28;20383;-67
2022/08/09 11:17:25;;;;;;;3.28;0.90;;;;;;;24.29;50.29;102605.78;5209459;28;20037;-67
2022/08/09 11:20:09;;;;;;;3.53;0.80;;;;;;;24.07;51.17;102597.19;5206120;28;20041;-66
2022/08/09 11:22:43;;;;;;;2.03;0.70;;;;;;;24.21;50.72;102601.16;5206255;28;20472;-66
2022/08/09 11:25:26;;;;;;;2.05;0.70;;;;;;;24.31;48.83;102602.91;5204686;28;20321;-66
2022/08/09 11:27:58;;;;;;;2.97;0.82;;;;;;;24.37;49.60;102592.16;5211755;28;20036;-67
2022/08/09 11:30:34;;;;;;;3.05;0.90;;;;;;;24.45;50.41;102600.41;5210573;28;20034;-66
2022/08/09 11:33:30;;;;;;;3.20;1.02;;;;;;;24.38;49.83;102595.78;5204973;28;20038;-66
2022/08/09 11:36:01;;;;;;;2.85;0.90;;;;;;;24.37;48.00;102592.16;5207284;28;20509;-67
2022/08/09 11:38:34;;;;;;;2.33;0.82;;;;;;;24.49;48.59;102580.94;5206951;28;20029;-66
2022/08/09 11:41:12;;;;;;;2.22;0.75;;;;;;;24.52;48.96;102586.09;5216714;28;20038;-67
2022/08/09 11:43:47;;;;;;;3.22;0.85;;;;;;;24.52;49.85;102576.03;5209794;28;20365;-67
2022/08/09 11:46:19;;;;;;;2.72;0.80;;;;;;;24.57;50.89;102578.28;5204826;28;20021;-66
2022/08/09 11:48:54;;;;;;;3.42;1.00;;;;;;;24.64;49.61;102576.56;5210328;28;20034;-66